Torpoint, United Kingdom
Current Conditions -  °F | °C
As of 4:20 PM on Thursday 27 Nov 2014 (Local Time) from EGHQ Reporting Station
Clear Clear  
Wind Chill: 43°   Ceiling: Unl
Heat Index: 48°   Visibility: 6mi
Dew Point: 43°   Wind: 12mph
Humidity: 82%   Direction: 120°ESE
Pressure: 29.41"   Gusts: NA
Location:  50.38°N, 4.2°W
Report Text: EGHQ 271620Z 12010KT CAVOK 09/06 Q0996
Loading
Personal Weather Stations






























Interactive Weather Map New forecast layout! Learn more

10-Day Weather Forecast

Advertisements
Track Severe Weather on mobile